sensor_id;sensor_type;location;lat;lon;timestamp;temperature;humidity
16976;DHT22;8604;48.148;-1.786;2023-07-29T00:01:51;18.20;99.90
16976;DHT22;8604;48.148;-1.786;2023-07-29T00:04:20;18.20;99.90
16976;DHT22;8604;48.148;-1.786;2023-07-29T00:06:50;18.20;99.90
16976;DHT22;8604;48.148;-1.786;2023-07-29T00:09:18;18.20;99.90
16976;DHT22;8604;48.148;-1.786;2023-07-29T00:11:47;18.20;99.90
16976;DHT22;8604;48.148;-1.786;2023-07-29T00:14:15;18.20;99.90
16976;DHT22;8604;48.148;-1.786;2023-07-29T00:16:43;18.20;99.90
16976;DHT22;8604;48.148;-1.786;2023-07-29T00:19:12;18.20;99.90
16976;DHT22;8604;48.148;-1.786;2023-07-29T00:21:40;18.20;99.90
16976;DHT22;8604;48.148;-1.786;2023-07-29T00:24:10;18.20;99.90
16976;DHT22;8604;48.148;-1.786;2023-07-29T00:26:38;18.20;99.90
16976;DHT22;8604;48.148;-1.786;2023-07-29T00:29:07;18.30;99.90
16976;DHT22;8604;48.148;-1.786;2023-07-29T00:31:35;18.20;99.90
16976;DHT22;8604;48.148;-1.786;2023-07-29T00:34:03;18.30;99.90
16976;DHT22;8604;48.148;-1.786;2023-07-29T00:36:32;18.30;99.90
16976;DHT22;8604;48.148;-1.786;2023-07-29T00:39:01;18.20;99.90
16976;DHT22;8604;48.148;-1.786;2023-07-29T00:41:30;18.20;99.90
16976;DHT22;8604;48.148;-1.786;2023-07-29T00:43:59;18.20;99.90
16976;DHT22;8604;48.148;-1.786;2023-07-29T00:46:30;18.20;99.90
16976;DHT22;8604;48.148;-1.786;2023-07-29T00:49:00;18.20;99.90
16976;DHT22;8604;48.148;-1.786;2023-07-29T00:51:28;18.20;99.90
16976;DHT22;8604;48.148;-1.786;2023-07-29T00:53:57;18.30;99.90
16976;DHT22;8604;48.148;-1.786;2023-07-29T00:56:25;18.30;99.90
16976;DHT22;8604;48.148;-1.786;2023-07-29T00:58:55;18.30;99.90
16976;DHT22;8604;48.148;-1.786;2023-07-29T01:01:28;18.30;99.90
16976;DHT22;8604;48.148;-1.786;2023-07-29T01:03:57;18.30;99.90
16976;DHT22;8604;48.148;-1.786;2023-07-29T01:06:32;18.40;99.90
16976;DHT22;8604;48.148;-1.786;2023-07-29T01:09:03;18.40;99.90
16976;DHT22;8604;48.148;-1.786;2023-07-29T01:11:45;18.40;99.90
16976;DHT22;8604;48.148;-1.786;2023-07-29T01:14:25;18.40;99.90
16976;DHT22;8604;48.148;-1.786;2023-07-29T01:16:57;18.40;99.90
16976;DHT22;8604;48.148;-1.786;2023-07-29T01:19:42;18.40;99.90
16976;DHT22;8604;48.148;-1.786;2023-07-29T01:22:11;18.40;99.90
16976;DHT22;8604;48.148;-1.786;2023-07-29T01:24:42;18.40;99.90
16976;DHT22;8604;48.148;-1.786;2023-07-29T01:27:11;18.40;99.90
16976;DHT22;8604;48.148;-1.786;2023-07-29T01:29:40;18.40;99.90
16976;DHT22;8604;48.148;-1.786;2023-07-29T01:32:14;18.40;99.90
16976;DHT22;8604;48.148;-1.786;2023-07-29T01:34:48;18.40;99.90
16976;DHT22;8604;48.148;-1.786;2023-07-29T01:37:25;18.40;99.90
16976;DHT22;8604;48.148;-1.786;2023-07-29T01:39:57;18.40;99.90
16976;DHT22;8604;48.148;-1.786;2023-07-29T01:42:27;18.50;99.90
16976;DHT22;8604;48.148;-1.786;2023-07-29T01:44:56;18.50;99.90
16976;DHT22;8604;48.148;-1.786;2023-07-29T01:47:25;18.50;99.90
16976;DHT22;8604;48.148;-1.786;2023-07-29T01:49:54;18.40;99.90
16976;DHT22;8604;48.148;-1.786;2023-07-29T01:52:23;18.50;99.90
16976;DHT22;8604;48.148;-1.786;2023-07-29T01:54:51;18.40;99.90
16976;DHT22;8604;48.148;-1.786;2023-07-29T01:57:21;18.40;99.90
16976;DHT22;8604;48.148;-1.786;2023-07-29T01:59:50;18.40;99.90
16976;DHT22;8604;48.148;-1.786;2023-07-29T02:02:18;18.40;99.90
16976;DHT22;8604;48.148;-1.786;2023-07-29T02:04:47;18.40;99.90
16976;DHT22;8604;48.148;-1.786;2023-07-29T02:07:18;18.40;99.90
16976;DHT22;8604;48.148;-1.786;2023-07-29T02:09:47;18.40;99.90
16976;DHT22;8604;48.148;-1.786;2023-07-29T02:12:15;18.40;99.90
16976;DHT22;8604;48.148;-1.786;2023-07-29T02:14:45;18.40;99.90
16976;DHT22;8604;48.148;-1.786;2023-07-29T02:17:13;18.40;99.90
16976;DHT22;8604;48.148;-1.786;2023-07-29T02:19:42;18.50;99.90
16976;DHT22;8604;48.148;-1.786;2023-07-29T02:22:12;18.50;99.90
16976;DHT22;8604;48.148;-1.786;2023-07-29T02:24:41;18.50;99.90
16976;DHT22;8604;48.148;-1.786;2023-07-29T02:27:09;18.50;99.90
16976;DHT22;8604;48.148;-1.786;2023-07-29T02:29:37;18.50;99.90
16976;DHT22;8604;48.148;-1.786;2023-07-29T02:32:07;18.50;99.90
16976;DHT22;8604;48.148;-1.786;2023-07-29T02:34:36;18.50;99.90
16976;DHT22;8604;48.148;-1.786;2023-07-29T02:37:04;18.50;99.90
16976;DHT22;8604;48.148;-1.786;2023-07-29T02:39:32;18.50;99.90
16976;DHT22;8604;48.148;-1.786;2023-07-29T02:42:01;18.50;99.90
16976;DHT22;8604;48.148;-1.786;2023-07-29T02:44:30;18.50;99.90
16976;DHT22;8604;48.148;-1.786;2023-07-29T02:46:58;18.50;99.90
16976;DHT22;8604;48.148;-1.786;2023-07-29T02:49:27;18.50;99.90
16976;DHT22;8604;48.148;-1.786;2023-07-29T02:51:56;18.50;99.90
16976;DHT22;8604;48.148;-1.786;2023-07-29T02:54:24;18.50;99.90
16976;DHT22;8604;48.148;-1.786;2023-07-29T02:56:53;18.50;99.90
16976;DHT22;8604;48.148;-1.786;2023-07-29T02:59:22;18.50;99.90
16976;DHT22;8604;48.148;-1.786;2023-07-29T03:01:52;18.50;99.90
16976;DHT22;8604;48.148;-1.786;2023-07-29T03:04:21;18.50;99.90
16976;DHT22;8604;48.148;-1.786;2023-07-29T03:06:52;18.50;99.90
16976;DHT22;8604;48.148;-1.786;2023-07-29T03:09:20;18.50;99.90
16976;DHT22;8604;48.148;-1.786;2023-07-29T03:11:48;18.50;99.90
16976;DHT22;8604;48.148;-1.786;2023-07-29T03:14:18;18.50;99.90
16976;DHT22;8604;48.148;-1.786;2023-07-29T03:16:46;18.50;99.90
16976;DHT22;8604;48.148;-1.786;2023-07-29T03:19:15;18.50;99.90
16976;DHT22;8604;48.148;-1.786;2023-07-29T03:21:43;18.50;99.90
16976;DHT22;8604;48.148;-1.786;2023-07-29T03:24:14;18.50;99.90
16976;DHT22;8604;48.148;-1.786;2023-07-29T03:26:42;18.50;99.90
16976;DHT22;8604;48.148;-1.786;2023-07-29T03:29:12;18.50;99.90
16976;DHT22;8604;48.148;-1.786;2023-07-29T03:31:41;18.50;99.90
16976;DHT22;8604;48.148;-1.786;2023-07-29T03:34:09;18.50;99.90
16976;DHT22;8604;48.148;-1.786;2023-07-29T03:36:42;18.50;99.90
16976;DHT22;8604;48.148;-1.786;2023-07-29T03:39:10;18.50;99.90
16976;DHT22;8604;48.148;-1.786;2023-07-29T03:41:40;18.50;99.90
16976;DHT22;8604;48.148;-1.786;2023-07-29T03:44:09;18.50;99.90
16976;DHT22;8604;48.148;-1.786;2023-07-29T03:46:37;18.60;99.90
16976;DHT22;8604;48.148;-1.786;2023-07-29T03:49:08;18.50;99.90
16976;DHT22;8604;48.148;-1.786;2023-07-29T03:51:36;18.60;99.90
16976;DHT22;8604;48.148;-1.786;2023-07-29T03:54:07;18.60;99.90
16976;DHT22;8604;48.148;-1.786;2023-07-29T03:56:35;18.60;99.90
16976;DHT22;8604;48.148;-1.786;2023-07-29T03:59:06;18.50;99.90
16976;DHT22;8604;48.148;-1.786;2023-07-29T04:01:34;18.60;99.90
16976;DHT22;8604;48.148;-1.786;2023-07-29T04:04:03;18.60;99.90
16976;DHT22;8604;48.148;-1.786;2023-07-29T04:06:31;18.60;99.90
16976;DHT22;8604;48.148;-1.786;2023-07-29T04:09:01;18.60;99.90
16976;DHT22;8604;48.148;-1.786;2023-07-29T04:11:29;18.60;99.90
16976;DHT22;8604;48.148;-1.786;2023-07-29T04:13:57;18.60;99.90
16976;DHT22;8604;48.148;-1.786;2023-07-29T04:16:27;18.60;99.90
16976;DHT22;8604;48.148;-1.786;2023-07-29T04:18:56;18.60;99.90
16976;DHT22;8604;48.148;-1.786;2023-07-29T04:21:25;18.60;99.90
16976;DHT22;8604;48.148;-1.786;2023-07-29T04:23:53;18.60;99.90
16976;DHT22;8604;48.148;-1.786;2023-07-29T04:26:21;18.60;99.90
16976;DHT22;8604;48.148;-1.786;2023-07-29T04:28:50;18.60;99.90
16976;DHT22;8604;48.148;-1.786;2023-07-29T04:31:18;18.60;99.90
16976;DHT22;8604;48.148;-1.786;2023-07-29T04:33:48;18.60;99.90
16976;DHT22;8604;48.148;-1.786;2023-07-29T04:36:17;18.60;99.90
16976;DHT22;8604;48.148;-1.786;2023-07-29T04:38:45;18.60;99.90
16976;DHT22;8604;48.148;-1.786;2023-07-29T04:41:14;18.60;99.90
16976;DHT22;8604;48.148;-1.786;2023-07-29T04:43:42;18.60;99.90
16976;DHT22;8604;48.148;-1.786;2023-07-29T04:46:10;18.60;99.90
16976;DHT22;8604;48.148;-1.786;2023-07-29T04:48:39;18.60;99.90
16976;DHT22;8604;48.148;-1.786;2023-07-29T04:51:08;18.70;99.90
16976;DHT22;8604;48.148;-1.786;2023-07-29T04:53:39;18.60;99.90
16976;DHT22;8604;48.148;-1.786;2023-07-29T04:56:07;18.60;99.90
16976;DHT22;8604;48.148;-1.786;2023-07-29T04:58:36;18.70;99.90
16976;DHT22;8604;48.148;-1.786;2023-07-29T05:01:04;18.70;99.90
16976;DHT22;8604;48.148;-1.786;2023-07-29T05:03:33;18.60;99.90
16976;DHT22;8604;48.148;-1.786;2023-07-29T05:06:01;18.70;99.90
16976;DHT22;8604;48.148;-1.786;2023-07-29T05:08:31;18.70;99.90
16976;DHT22;8604;48.148;-1.786;2023-07-29T05:10:59;18.70;99.90
16976;DHT22;8604;48.148;-1.786;2023-07-29T05:13:28;18.70;99.90
16976;DHT22;8604;48.148;-1.786;2023-07-29T05:15:56;18.70;99.90
16976;DHT22;8604;48.148;-1.786;2023-07-29T05:18:25;18.70;99.90
16976;DHT22;8604;48.148;-1.786;2023-07-29T05:20:53;18.70;99.90
16976;DHT22;8604;48.148;-1.786;2023-07-29T05:23:24;18.80;99.90
16976;DHT22;8604;48.148;-1.786;2023-07-29T05:25:54;18.80;99.90
16976;DHT22;8604;48.148;-1.786;2023-07-29T05:28:22;18.80;99.90
16976;DHT22;8604;48.148;-1.786;2023-07-29T05:30:51;18.80;99.90
16976;DHT22;8604;48.148;-1.786;2023-07-29T05:33:19;18.80;99.90
16976;DHT22;8604;48.148;-1.786;2023-07-29T05:35:48;18.80;99.90
16976;DHT22;8604;48.148;-1.786;2023-07-29T05:38:16;18.90;99.90
16976;DHT22;8604;48.148;-1.786;2023-07-29T05:40:45;18.90;99.90
16976;DHT22;8604;48.148;-1.786;2023-07-29T05:43:14;18.90;99.90
16976;DHT22;8604;48.148;-1.786;2023-07-29T05:45:43;18.90;99.90
16976;DHT22;8604;48.148;-1.786;2023-07-29T05:48:11;18.90;99.90
16976;DHT22;8604;48.148;-1.786;2023-07-29T05:50:41;18.90;99.90
16976;DHT22;8604;48.148;-1.786;2023-07-29T05:53:09;18.90;99.90
16976;DHT22;8604;48.148;-1.786;2023-07-29T05:55:38;18.90;99.90
16976;DHT22;8604;48.148;-1.786;2023-07-29T05:58:20;19.00;99.90
16976;DHT22;8604;48.148;-1.786;2023-07-29T06:01:04;19.00;99.90
16976;DHT22;8604;48.148;-1.786;2023-07-29T06:03:32;19.10;99.90
16976;DHT22;8604;48.148;-1.786;2023-07-29T06:06:01;19.20;99.90
16976;DHT22;8604;48.148;-1.786;2023-07-29T06:08:29;19.20;99.90
16976;DHT22;8604;48.148;-1.786;2023-07-29T06:11:01;19.40;99.90
16976;DHT22;8604;48.148;-1.786;2023-07-29T06:13:31;19.40;99.90
16976;DHT22;8604;48.148;-1.786;2023-07-29T06:16:07;19.50;99.90
16976;DHT22;8604;48.148;-1.786;2023-07-29T06:18:57;19.50;99.90
16976;DHT22;8604;48.148;-1.786;2023-07-29T06:21:33;19.50;99.90
16976;DHT22;8604;48.148;-1.786;2023-07-29T06:24:19;19.50;99.90
16976;DHT22;8604;48.148;-1.786;2023-07-29T06:27:16;19.50;99.90
16976;DHT22;8604;48.148;-1.786;2023-07-29T06:29:49;19.50;99.90
16976;DHT22;8604;48.148;-1.786;2023-07-29T06:32:31;19.50;99.90
16976;DHT22;8604;48.148;-1.786;2023-07-29T06:35:39;19.50;99.90
16976;DHT22;8604;48.148;-1.786;2023-07-29T06:38:09;19.60;99.90
16976;DHT22;8604;48.148;-1.786;2023-07-29T06:40:37;19.70;99.90
16976;DHT22;8604;48.148;-1.786;2023-07-29T06:43:05;19.90;99.90
16976;DHT22;8604;48.148;-1.786;2023-07-29T06:45:49;20.00;99.90
16976;DHT22;8604;48.148;-1.786;2023-07-29T06:48:44;20.20;99.90
16976;DHT22;8604;48.148;-1.786;2023-07-29T06:51:13;20.30;99.90
16976;DHT22;8604;48.148;-1.786;2023-07-29T06:53:41;20.40;99.90
16976;DHT22;8604;48.148;-1.786;2023-07-29T06:56:10;20.40;99.90
16976;DHT22;8604;48.148;-1.786;2023-07-29T06:58:38;20.50;99.90
16976;DHT22;8604;48.148;-1.786;2023-07-29T07:01:08;20.70;99.90
16976;DHT22;8604;48.148;-1.786;2023-07-29T07:03:36;20.80;99.90
16976;DHT22;8604;48.148;-1.786;2023-07-29T07:06:05;21.00;99.90
16976;DHT22;8604;48.148;-1.786;2023-07-29T07:08:33;21.00;99.90
16976;DHT22;8604;48.148;-1.786;2023-07-29T07:11:02;20.90;99.90
16976;DHT22;8604;48.148;-1.786;2023-07-29T07:13:30;20.80;99.90
16976;DHT22;8604;48.148;-1.786;2023-07-29T07:15:58;20.80;99.90
16976;DHT22;8604;48.148;-1.786;2023-07-29T07:18:28;20.80;99.90
16976;DHT22;8604;48.148;-1.786;2023-07-29T07:20:56;20.70;99.90
16976;DHT22;8604;48.148;-1.786;2023-07-29T07:23:25;20.60;99.90
16976;DHT22;8604;48.148;-1.786;2023-07-29T07:25:53;20.60;99.90
16976;DHT22;8604;48.148;-1.786;2023-07-29T07:28:22;20.50;99.90
16976;DHT22;8604;48.148;-1.786;2023-07-29T07:30:51;20.50;99.90
16976;DHT22;8604;48.148;-1.786;2023-07-29T07:33:20;20.50;99.90
16976;DHT22;8604;48.148;-1.786;2023-07-29T07:35:50;20.50;99.90
16976;DHT22;8604;48.148;-1.786;2023-07-29T07:38:26;20.50;99.90
16976;DHT22;8604;48.148;-1.786;2023-07-29T07:40:55;20.80;99.90
16976;DHT22;8604;48.148;-1.786;2023-07-29T07:43:30;21.30;99.90
16976;DHT22;8604;48.148;-1.786;2023-07-29T07:46:24;21.40;99.90
16976;DHT22;8604;48.148;-1.786;2023-07-29T07:48:52;22.20;99.90
16976;DHT22;8604;48.148;-1.786;2023-07-29T07:51:26;22.20;99.90
16976;DHT22;8604;48.148;-1.786;2023-07-29T07:55:00;21.90;99.90
16976;DHT22;8604;48.148;-1.786;2023-07-29T08:01:54;21.50;99.90
16976;DHT22;8604;48.148;-1.786;2023-07-29T08:23:40;25.70;99.90
16976;DHT22;8604;48.148;-1.786;2023-07-29T08:26:08;26.40;99.90
16976;DHT22;8604;48.148;-1.786;2023-07-29T08:28:38;26.80;99.90
16976;DHT22;8604;48.148;-1.786;2023-07-29T08:31:07;27.30;99.90
16976;DHT22;8604;48.148;-1.786;2023-07-29T08:33:36;27.30;99.90
16976;DHT22;8604;48.148;-1.786;2023-07-29T08:36:05;27.90;99.90
16976;DHT22;8604;48.148;-1.786;2023-07-29T08:38:33;28.10;99.90
16976;DHT22;8604;48.148;-1.786;2023-07-29T08:41:10;28.10;99.90
16976;DHT22;8604;48.148;-1.786;2023-07-29T08:43:45;28.70;99.90
16976;DHT22;8604;48.148;-1.786;2023-07-29T08:46:18;28.90;99.90
16976;DHT22;8604;48.148;-1.786;2023-07-29T08:48:47;29.10;99.90
16976;DHT22;8604;48.148;-1.786;2023-07-29T08:51:17;29.60;99.90
16976;DHT22;8604;48.148;-1.786;2023-07-29T08:53:48;29.90;99.90
16976;DHT22;8604;48.148;-1.786;2023-07-29T08:56:18;29.40;99.90
16976;DHT22;8604;48.148;-1.786;2023-07-29T08:58:48;29.60;99.90
16976;DHT22;8604;48.148;-1.786;2023-07-29T09:01:17;29.90;99.90
16976;DHT22;8604;48.148;-1.786;2023-07-29T09:03:45;30.20;99.90
16976;DHT22;8604;48.148;-1.786;2023-07-29T09:06:14;30.70;99.90
16976;DHT22;8604;48.148;-1.786;2023-07-29T09:08:45;31.10;99.90
16976;DHT22;8604;48.148;-1.786;2023-07-29T09:11:14;31.20;99.90
16976;DHT22;8604;48.148;-1.786;2023-07-29T09:13:45;31.60;99.90
16976;DHT22;8604;48.148;-1.786;2023-07-29T09:16:14;31.80;99.90
16976;DHT22;8604;48.148;-1.786;2023-07-29T09:18:43;32.20;99.90
16976;DHT22;8604;48.148;-1.786;2023-07-29T09:21:11;32.30;99.90
16976;DHT22;8604;48.148;-1.786;2023-07-29T09:23:41;32.30;99.90
16976;DHT22;8604;48.148;-1.786;2023-07-29T09:26:10;32.60;99.90
16976;DHT22;8604;48.148;-1.786;2023-07-29T09:28:39;32.40;99.90
16976;DHT22;8604;48.148;-1.786;2023-07-29T09:31:19;32.00;99.90
16976;DHT22;8604;48.148;-1.786;2023-07-29T09:33:48;31.90;99.90
16976;DHT22;8604;48.148;-1.786;2023-07-29T09:36:16;32.30;99.90
16976;DHT22;8604;48.148;-1.786;2023-07-29T09:38:45;32.40;99.90
16976;DHT22;8604;48.148;-1.786;2023-07-29T09:41:15;32.60;99.90
16976;DHT22;8604;48.148;-1.786;2023-07-29T09:43:44;32.30;99.90
16976;DHT22;8604;48.148;-1.786;2023-07-29T09:46:14;32.40;99.90
16976;DHT22;8604;48.148;-1.786;2023-07-29T09:48:42;32.50;99.90
16976;DHT22;8604;48.148;-1.786;2023-07-29T09:51:15;32.70;99.90
16976;DHT22;8604;48.148;-1.786;2023-07-29T09:53:46;32.90;99.90
16976;DHT22;8604;48.148;-1.786;2023-07-29T09:56:15;32.90;99.90
16976;DHT22;8604;48.148;-1.786;2023-07-29T09:58:45;33.20;99.90
16976;DHT22;8604;48.148;-1.786;2023-07-29T10:01:15;33.40;99.90
16976;DHT22;8604;48.148;-1.786;2023-07-29T10:03:44;33.60;99.90
16976;DHT22;8604;48.148;-1.786;2023-07-29T10:06:14;33.90;99.90
16976;DHT22;8604;48.148;-1.786;2023-07-29T10:08:44;34.30;99.90
16976;DHT22;8604;48.148;-1.786;2023-07-29T10:11:13;33.50;99.90
16976;DHT22;8604;48.148;-1.786;2023-07-29T10:13:42;32.90;99.90
16976;DHT22;8604;48.148;-1.786;2023-07-29T10:16:28;33.10;99.90
16976;DHT22;8604;48.148;-1.786;2023-07-29T10:18:57;33.00;99.90
16976;DHT22;8604;48.148;-1.786;2023-07-29T10:21:27;32.70;99.90
16976;DHT22;8604;48.148;-1.786;2023-07-29T10:24:03;32.60;99.90
16976;DHT22;8604;48.148;-1.786;2023-07-29T10:26:37;32.20;99.90
16976;DHT22;8604;48.148;-1.786;2023-07-29T10:29:12;32.10;99.90
16976;DHT22;8604;48.148;-1.786;2023-07-29T10:31:43;32.40;99.90
16976;DHT22;8604;48.148;-1.786;2023-07-29T10:34:13;33.00;99.90
16976;DHT22;8604;48.148;-1.786;2023-07-29T10:36:41;33.00;99.90
16976;DHT22;8604;48.148;-1.786;2023-07-29T10:39:10;33.10;99.90
16976;DHT22;8604;48.148;-1.786;2023-07-29T10:41:56;33.30;99.90
16976;DHT22;8604;48.148;-1.786;2023-07-29T10:44:48;33.80;99.90
16976;DHT22;8604;48.148;-1.786;2023-07-29T10:47:20;33.90;99.90
16976;DHT22;8604;48.148;-1.786;2023-07-29T10:49:51;33.80;99.90
16976;DHT22;8604;48.148;-1.786;2023-07-29T10:52:39;34.30;99.90
16976;DHT22;8604;48.148;-1.786;2023-07-29T10:55:26;34.30;99.90
16976;DHT22;8604;48.148;-1.786;2023-07-29T10:58:09;33.90;99.90
16976;DHT22;8604;48.148;-1.786;2023-07-29T11:00:38;34.20;99.90
16976;DHT22;8604;48.148;-1.786;2023-07-29T11:03:09;34.50;99.90
16976;DHT22;8604;48.148;-1.786;2023-07-29T11:05:48;34.40;99.90
16976;DHT22;8604;48.148;-1.786;2023-07-29T11:08:22;34.00;99.90
16976;DHT22;8604;48.148;-1.786;2023-07-29T11:11:08;34.30;99.90
16976;DHT22;8604;48.148;-1.786;2023-07-29T11:13:40;33.90;99.90
16976;DHT22;8604;48.148;-1.786;2023-07-29T11:16:10;34.00;99.90
16976;DHT22;8604;48.148;-1.786;2023-07-29T11:18:46;33.80;99.90
16976;DHT22;8604;48.148;-1.786;2023-07-29T11:21:15;33.40;99.90
16976;DHT22;8604;48.148;-1.786;2023-07-29T11:23:45;33.00;99.90
16976;DHT22;8604;48.148;-1.786;2023-07-29T11:26:14;32.60;99.90
16976;DHT22;8604;48.148;-1.786;2023-07-29T11:28:42;32.30;99.90
16976;DHT22;8604;48.148;-1.786;2023-07-29T11:31:11;32.10;99.90
16976;DHT22;8604;48.148;-1.786;2023-07-29T11:33:39;31.40;99.90
16976;DHT22;8604;48.148;-1.786;2023-07-29T11:36:18;30.70;99.90
16976;DHT22;8604;48.148;-1.786;2023-07-29T11:38:47;30.30;99.90
16976;DHT22;8604;48.148;-1.786;2023-07-29T11:41:19;30.80;99.90
16976;DHT22;8604;48.148;-1.786;2023-07-29T11:43:49;31.50;99.90
16976;DHT22;8604;48.148;-1.786;2023-07-29T11:46:21;31.50;99.90
16976;DHT22;8604;48.148;-1.786;2023-07-29T11:48:50;31.00;99.90
16976;DHT22;8604;48.148;-1.786;2023-07-29T11:51:20;30.60;99.90
16976;DHT22;8604;48.148;-1.786;2023-07-29T11:53:49;30.50;99.90
16976;DHT22;8604;48.148;-1.786;2023-07-29T11:56:19;30.50;99.90
16976;DHT22;8604;48.148;-1.786;2023-07-29T11:58:48;30.30;99.90
16976;DHT22;8604;48.148;-1.786;2023-07-29T12:01:17;29.70;99.90
16976;DHT22;8604;48.148;-1.786;2023-07-29T12:03:46;29.40;99.90
16976;DHT22;8604;48.148;-1.786;2023-07-29T12:06:15;29.20;99.90
16976;DHT22;8604;48.148;-1.786;2023-07-29T12:08:45;29.20;99.90
16976;DHT22;8604;48.148;-1.786;2023-07-29T12:11:14;29.20;99.90
16976;DHT22;8604;48.148;-1.786;2023-07-29T12:13:44;29.30;99.90
16976;DHT22;8604;48.148;-1.786;2023-07-29T12:16:16;29.30;99.90
16976;DHT22;8604;48.148;-1.786;2023-07-29T12:18:45;29.30;99.90
16976;DHT22;8604;48.148;-1.786;2023-07-29T12:21:16;29.20;99.90
16976;DHT22;8604;48.148;-1.786;2023-07-29T12:23:46;29.20;99.90
16976;DHT22;8604;48.148;-1.786;2023-07-29T12:26:15;29.20;99.90
16976;DHT22;8604;48.148;-1.786;2023-07-29T12:28:46;29.30;99.90
16976;DHT22;8604;48.148;-1.786;2023-07-29T12:31:14;29.40;99.90
16976;DHT22;8604;48.148;-1.786;2023-07-29T12:33:43;29.40;99.90
16976;DHT22;8604;48.148;-1.786;2023-07-29T12:36:11;29.30;99.90
16976;DHT22;8604;48.148;-1.786;2023-07-29T12:38:42;29.40;99.90
16976;DHT22;8604;48.148;-1.786;2023-07-29T12:41:13;29.20;99.90
16976;DHT22;8604;48.148;-1.786;2023-07-29T12:43:41;29.00;99.90
16976;DHT22;8604;48.148;-1.786;2023-07-29T12:46:10;28.70;99.90
16976;DHT22;8604;48.148;-1.786;2023-07-29T12:48:39;28.40;99.90
16976;DHT22;8604;48.148;-1.786;2023-07-29T12:51:07;28.20;99.90
16976;DHT22;8604;48.148;-1.786;2023-07-29T12:53:36;28.10;99.90
16976;DHT22;8604;48.148;-1.786;2023-07-29T12:56:06;28.00;99.90
16976;DHT22;8604;48.148;-1.786;2023-07-29T12:58:36;27.80;99.90
16976;DHT22;8604;48.148;-1.786;2023-07-29T13:01:04;27.70;99.90
16976;DHT22;8604;48.148;-1.786;2023-07-29T13:03:33;27.50;99.90
16976;DHT22;8604;48.148;-1.786;2023-07-29T13:06:02;27.60;99.90
16976;DHT22;8604;48.148;-1.786;2023-07-29T13:08:30;27.50;99.90
16976;DHT22;8604;48.148;-1.786;2023-07-29T13:10:59;27.40;99.90
16976;DHT22;8604;48.148;-1.786;2023-07-29T13:13:27;27.40;99.90
16976;DHT22;8604;48.148;-1.786;2023-07-29T13:15:58;27.30;99.90
16976;DHT22;8604;48.148;-1.786;2023-07-29T13:18:28;27.30;99.90
16976;DHT22;8604;48.148;-1.786;2023-07-29T13:20:57;27.00;99.90
16976;DHT22;8604;48.148;-1.786;2023-07-29T13:23:27;27.00;99.90
16976;DHT22;8604;48.148;-1.786;2023-07-29T13:25:57;26.90;99.90
16976;DHT22;8604;48.148;-1.786;2023-07-29T13:28:25;26.90;99.90
16976;DHT22;8604;48.148;-1.786;2023-07-29T13:30:54;26.90;99.90
16976;DHT22;8604;48.148;-1.786;2023-07-29T13:33:23;27.00;99.90
16976;DHT22;8604;48.148;-1.786;2023-07-29T13:35:52;27.10;99.90
16976;DHT22;8604;48.148;-1.786;2023-07-29T13:38:20;27.20;99.90
16976;DHT22;8604;48.148;-1.786;2023-07-29T13:40:49;27.30;99.90
16976;DHT22;8604;48.148;-1.786;2023-07-29T13:43:18;27.40;99.90
16976;DHT22;8604;48.148;-1.786;2023-07-29T13:45:46;27.50;99.90
16976;DHT22;8604;48.148;-1.786;2023-07-29T13:48:17;27.40;99.90
16976;DHT22;8604;48.148;-1.786;2023-07-29T13:50:47;27.30;99.90
16976;DHT22;8604;48.148;-1.786;2023-07-29T13:53:16;27.10;99.90
16976;DHT22;8604;48.148;-1.786;2023-07-29T13:55:45;27.10;99.90
16976;DHT22;8604;48.148;-1.786;2023-07-29T13:58:13;27.10;99.90
16976;DHT22;8604;48.148;-1.786;2023-07-29T14:00:42;27.10;99.90
16976;DHT22;8604;48.148;-1.786;2023-07-29T14:03:11;26.90;99.90
16976;DHT22;8604;48.148;-1.786;2023-07-29T14:05:39;26.90;99.90
16976;DHT22;8604;48.148;-1.786;2023-07-29T14:08:09;26.80;99.90
16976;DHT22;8604;48.148;-1.786;2023-07-29T14:10:38;26.70;99.90
16976;DHT22;8604;48.148;-1.786;2023-07-29T14:13:06;26.70;99.90
16976;DHT22;8604;48.148;-1.786;2023-07-29T14:15:35;26.70;99.90
16976;DHT22;8604;48.148;-1.786;2023-07-29T14:18:03;26.70;99.90
16976;DHT22;8604;48.148;-1.786;2023-07-29T14:20:32;26.70;99.90
16976;DHT22;8604;48.148;-1.786;2023-07-29T14:23:00;26.70;99.90
16976;DHT22;8604;48.148;-1.786;2023-07-29T14:25:30;26.70;99.90
16976;DHT22;8604;48.148;-1.786;2023-07-29T14:27:59;26.80;99.90
16976;DHT22;8604;48.148;-1.786;2023-07-29T14:30:27;27.00;99.90
16976;DHT22;8604;48.148;-1.786;2023-07-29T14:32:55;27.10;99.90
16976;DHT22;8604;48.148;-1.786;2023-07-29T14:35:24;27.00;99.90
16976;DHT22;8604;48.148;-1.786;2023-07-29T14:37:53;26.90;99.90
16976;DHT22;8604;48.148;-1.786;2023-07-29T14:40:21;26.80;99.90
16976;DHT22;8604;48.148;-1.786;2023-07-29T14:42:51;26.60;99.90
16976;DHT22;8604;48.148;-1.786;2023-07-29T14:45:19;26.60;99.90
16976;DHT22;8604;48.148;-1.786;2023-07-29T14:47:48;26.40;99.90
16976;DHT22;8604;48.148;-1.786;2023-07-29T14:50:16;26.40;99.90
16976;DHT22;8604;48.148;-1.786;2023-07-29T14:52:45;26.40;99.90
16976;DHT22;8604;48.148;-1.786;2023-07-29T14:55:13;26.50;99.90
16976;DHT22;8604;48.148;-1.786;2023-07-29T14:57:41;26.50;99.90
16976;DHT22;8604;48.148;-1.786;2023-07-29T15:00:12;26.50;99.90
16976;DHT22;8604;48.148;-1.786;2023-07-29T15:02:41;26.40;99.90
16976;DHT22;8604;48.148;-1.786;2023-07-29T15:05:09;26.30;99.90
16976;DHT22;8604;48.148;-1.786;2023-07-29T15:07:38;26.20;99.90
16976;DHT22;8604;48.148;-1.786;2023-07-29T15:10:07;26.20;99.90
16976;DHT22;8604;48.148;-1.786;2023-07-29T15:12:36;26.10;99.90
16976;DHT22;8604;48.148;-1.786;2023-07-29T15:15:05;26.10;99.90
16976;DHT22;8604;48.148;-1.786;2023-07-29T15:17:35;25.80;99.90
16976;DHT22;8604;48.148;-1.786;2023-07-29T15:20:05;25.80;99.90
16976;DHT22;8604;48.148;-1.786;2023-07-29T15:22:33;25.60;99.90
16976;DHT22;8604;48.148;-1.786;2023-07-29T15:25:02;25.60;99.90
16976;DHT22;8604;48.148;-1.786;2023-07-29T15:27:30;25.40;99.90
16976;DHT22;8604;48.148;-1.786;2023-07-29T15:29:59;25.00;99.90
16976;DHT22;8604;48.148;-1.786;2023-07-29T15:32:27;24.50;99.90
16976;DHT22;8604;48.148;-1.786;2023-07-29T15:34:57;24.00;99.90
16976;DHT22;8604;48.148;-1.786;2023-07-29T15:37:26;23.60;99.90
16976;DHT22;8604;48.148;-1.786;2023-07-29T15:39:54;23.30;99.90
16976;DHT22;8604;48.148;-1.786;2023-07-29T15:42:23;23.00;99.90
16976;DHT22;8604;48.148;-1.786;2023-07-29T15:44:51;22.90;99.90
16976;DHT22;8604;48.148;-1.786;2023-07-29T15:47:20;22.80;99.90
16976;DHT22;8604;48.148;-1.786;2023-07-29T15:49:48;22.50;99.90
16976;DHT22;8604;48.148;-1.786;2023-07-29T15:52:18;22.30;99.90
16976;DHT22;8604;48.148;-1.786;2023-07-29T15:54:47;22.20;99.90
16976;DHT22;8604;48.148;-1.786;2023-07-29T15:57:17;22.20;99.90
16976;DHT22;8604;48.148;-1.786;2023-07-29T15:59:45;22.10;99.90
16976;DHT22;8604;48.148;-1.786;2023-07-29T16:02:14;22.10;99.90
16976;DHT22;8604;48.148;-1.786;2023-07-29T16:04:42;22.00;99.90
16976;DHT22;8604;48.148;-1.786;2023-07-29T16:07:10;22.00;99.90
16976;DHT22;8604;48.148;-1.786;2023-07-29T16:09:40;21.80;99.90
16976;DHT22;8604;48.148;-1.786;2023-07-29T16:12:09;21.60;99.90
16976;DHT22;8604;48.148;-1.786;2023-07-29T16:14:37;21.40;99.90